sensor_id;sensor_type;location;lat;lon;timestamp;P1;durP1;ratioP1;P2;durP2;ratioP2
69170;SDS011;56279;47.902;12.308;2023-05-18T00:01:01;8.23;;;4.88;;
69170;SDS011;56279;47.902;12.308;2023-05-18T00:03:03;8.67;;;4.20;;
69170;SDS011;56279;47.902;12.308;2023-05-18T00:05:05;12.88;;;4.97;;
69170;SDS011;56279;47.902;12.308;2023-05-18T00:07:08;6.10;;;4.00;;
69170;SDS011;56279;47.902;12.308;2023-05-18T00:09:10;11.05;;;4.70;;
69170;SDS011;56279;47.902;12.308;2023-05-18T00:11:11;8.02;;;5.07;;
69170;SDS011;56279;47.902;12.308;2023-05-18T00:13:13;6.38;;;3.83;;
69170;SDS011;56279;47.902;12.308;2023-05-18T00:15:14;9.90;;;4.32;;
69170;SDS011;56279;47.902;12.308;2023-05-18T00:17:15;7.60;;;4.30;;
69170;SDS011;56279;47.902;12.308;2023-05-18T00:19:17;7.40;;;4.22;;
69170;SDS011;56279;47.902;12.308;2023-05-18T00:21:20;10.63;;;4.53;;
69170;SDS011;56279;47.902;12.308;2023-05-18T00:23:22;8.52;;;4.45;;
69170;SDS011;56279;47.902;12.308;2023-05-18T00:25:24;8.02;;;4.40;;
69170;SDS011;56279;47.902;12.308;2023-05-18T00:27:25;7.32;;;4.35;;
69170;SDS011;56279;47.902;12.308;2023-05-18T00:29:27;6.85;;;4.28;;
69170;SDS011;56279;47.902;12.308;2023-05-18T00:31:29;10.60;;;4.57;;
69170;SDS011;56279;47.902;12.308;2023-05-18T00:33:30;8.60;;;4.23;;
69170;SDS011;56279;47.902;12.308;2023-05-18T00:35:35;7.07;;;4.40;;
69170;SDS011;56279;47.902;12.308;2023-05-18T00:37:37;7.20;;;4.72;;
69170;SDS011;56279;47.902;12.308;2023-05-18T00:39:38;7.88;;;4.35;;
69170;SDS011;56279;47.902;12.308;2023-05-18T00:41:39;8.45;;;4.55;;
69170;SDS011;56279;47.902;12.308;2023-05-18T00:43:41;8.20;;;3.93;;
69170;SDS011;56279;47.902;12.308;2023-05-18T00:45:42;8.65;;;4.47;;
69170;SDS011;56279;47.902;12.308;2023-05-18T00:47:43;8.25;;;4.00;;
69170;SDS011;56279;47.902;12.308;2023-05-18T00:49:45;6.07;;;3.85;;
69170;SDS011;56279;47.902;12.308;2023-05-18T00:51:46;6.00;;;3.67;;
69170;SDS011;56279;47.902;12.308;2023-05-18T00:53:49;6.23;;;3.50;;
69170;SDS011;56279;47.902;12.308;2023-05-18T00:55:52;9.18;;;3.67;;
69170;SDS011;56279;47.902;12.308;2023-05-18T00:57:56;7.28;;;3.58;;
69170;SDS011;56279;47.902;12.308;2023-05-18T01:00:03;8.10;;;3.83;;
69170;SDS011;56279;47.902;12.308;2023-05-18T01:02:11;7.63;;;3.80;;
69170;SDS011;56279;47.902;12.308;2023-05-18T01:04:16;7.07;;;3.30;;
69170;SDS011;56279;47.902;12.308;2023-05-18T01:06:17;4.97;;;3.20;;
69170;SDS011;56279;47.902;12.308;2023-05-18T01:08:19;7.45;;;4.10;;
69170;SDS011;56279;47.902;12.308;2023-05-18T01:10:20;6.88;;;4.03;;
69170;SDS011;56279;47.902;12.308;2023-05-18T01:12:26;5.40;;;3.45;;
69170;SDS011;56279;47.902;12.308;2023-05-18T01:16:55;6.20;;;3.10;;
69170;SDS011;56279;47.902;12.308;2023-05-18T01:19:13;6.53;;;3.20;;
69170;SDS011;56279;47.902;12.308;2023-05-18T01:21:55;6.40;;;3.20;;
69170;SDS011;56279;47.902;12.308;2023-05-18T01:26:28;5.25;;;3.15;;
69170;SDS011;56279;47.902;12.308;2023-05-18T01:28:34;7.72;;;3.15;;
69170;SDS011;56279;47.902;12.308;2023-05-18T01:30:37;6.00;;;3.28;;
69170;SDS011;56279;47.902;12.308;2023-05-18T01:32:40;5.95;;;3.40;;
69170;SDS011;56279;47.902;12.308;2023-05-18T01:34:46;5.03;;;3.08;;
69170;SDS011;56279;47.902;12.308;2023-05-18T01:36:49;5.25;;;3.10;;
69170;SDS011;56279;47.902;12.308;2023-05-18T01:38:51;7.07;;;3.55;;
69170;SDS011;56279;47.902;12.308;2023-05-18T01:40:55;6.22;;;3.55;;
69170;SDS011;56279;47.902;12.308;2023-05-18T01:43:06;6.68;;;3.45;;
69170;SDS011;56279;47.902;12.308;2023-05-18T01:45:17;6.32;;;3.92;;
69170;SDS011;56279;47.902;12.308;2023-05-18T01:47:26;5.85;;;3.20;;
69170;SDS011;56279;47.902;12.308;2023-05-18T01:51:47;7.72;;;3.80;;
69170;SDS011;56279;47.902;12.308;2023-05-18T01:53:56;6.00;;;3.13;;
69170;SDS011;56279;47.902;12.308;2023-05-18T01:56:05;9.00;;;3.72;;
69170;SDS011;56279;47.902;12.308;2023-05-18T01:58:09;6.93;;;3.80;;
69170;SDS011;56279;47.902;12.308;2023-05-18T02:00:13;5.85;;;3.70;;
69170;SDS011;56279;47.902;12.308;2023-05-18T02:02:17;7.25;;;4.07;;
69170;SDS011;56279;47.902;12.308;2023-05-18T02:04:19;6.35;;;3.30;;
69170;SDS011;56279;47.902;12.308;2023-05-18T02:06:20;6.32;;;3.65;;
69170;SDS011;56279;47.902;12.308;2023-05-18T02:08:22;6.78;;;3.88;;
69170;SDS011;56279;47.902;12.308;2023-05-18T02:10:23;6.40;;;3.63;;
69170;SDS011;56279;47.902;12.308;2023-05-18T02:12:24;7.55;;;3.55;;
69170;SDS011;56279;47.902;12.308;2023-05-18T02:14:26;6.15;;;3.42;;
69170;SDS011;56279;47.902;12.308;2023-05-18T02:16:27;6.72;;;3.42;;
69170;SDS011;56279;47.902;12.308;2023-05-18T02:18:29;7.82;;;4.40;;
69170;SDS011;56279;47.902;12.308;2023-05-18T02:20:33;6.93;;;3.45;;
69170;SDS011;56279;47.902;12.308;2023-05-18T02:22:35;9.45;;;3.40;;
69170;SDS011;56279;47.902;12.308;2023-05-18T02:24:36;6.47;;;3.20;;
69170;SDS011;56279;47.902;12.308;2023-05-18T02:26:38;7.18;;;3.28;;
69170;SDS011;56279;47.902;12.308;2023-05-18T02:28:39;9.13;;;3.40;;
69170;SDS011;56279;47.902;12.308;2023-05-18T02:30:41;5.68;;;3.13;;
69170;SDS011;56279;47.902;12.308;2023-05-18T02:32:43;7.20;;;3.42;;
69170;SDS011;56279;47.902;12.308;2023-05-18T02:34:50;6.63;;;3.20;;
69170;SDS011;56279;47.902;12.308;2023-05-18T02:36:53;8.60;;;3.45;;
69170;SDS011;56279;47.902;12.308;2023-05-18T02:39:00;9.00;;;3.50;;
69170;SDS011;56279;47.902;12.308;2023-05-18T02:41:01;7.50;;;3.65;;
69170;SDS011;56279;47.902;12.308;2023-05-18T02:43:03;8.85;;;3.40;;
69170;SDS011;56279;47.902;12.308;2023-05-18T02:45:05;7.30;;;3.10;;
69170;SDS011;56279;47.902;12.308;2023-05-18T02:47:07;7.45;;;3.00;;
69170;SDS011;56279;47.902;12.308;2023-05-18T02:49:10;7.00;;;3.38;;
69170;SDS011;56279;47.902;12.308;2023-05-18T02:51:13;7.43;;;3.05;;
69170;SDS011;56279;47.902;12.308;2023-05-18T02:53:14;6.75;;;2.90;;
69170;SDS011;56279;47.902;12.308;2023-05-18T02:55:16;7.25;;;3.25;;
69170;SDS011;56279;47.902;12.308;2023-05-18T02:57:39;5.45;;;2.80;;
69170;SDS011;56279;47.902;12.308;2023-05-18T02:59:43;7.20;;;2.95;;
69170;SDS011;56279;47.902;12.308;2023-05-18T03:01:44;6.25;;;2.67;;
69170;SDS011;56279;47.902;12.308;2023-05-18T03:03:46;6.93;;;2.90;;
69170;SDS011;56279;47.902;12.308;2023-05-18T03:05:48;8.23;;;3.40;;
69170;SDS011;56279;47.902;12.308;2023-05-18T03:07:52;4.68;;;2.58;;
69170;SDS011;56279;47.902;12.308;2023-05-18T03:09:55;5.10;;;3.40;;
69170;SDS011;56279;47.902;12.308;2023-05-18T03:11:57;6.78;;;2.97;;
69170;SDS011;56279;47.902;12.308;2023-05-18T03:13:59;5.68;;;3.17;;
69170;SDS011;56279;47.902;12.308;2023-05-18T03:16:01;5.18;;;2.80;;
69170;SDS011;56279;47.902;12.308;2023-05-18T03:18:03;5.55;;;3.20;;
69170;SDS011;56279;47.902;12.308;2023-05-18T03:20:04;5.30;;;2.80;;
69170;SDS011;56279;47.902;12.308;2023-05-18T03:22:06;5.32;;;3.25;;
69170;SDS011;56279;47.902;12.308;2023-05-18T03:24:08;4.93;;;2.60;;
69170;SDS011;56279;47.902;12.308;2023-05-18T03:26:12;6.25;;;3.20;;
69170;SDS011;56279;47.902;12.308;2023-05-18T03:28:14;6.00;;;3.30;;
69170;SDS011;56279;47.902;12.308;2023-05-18T03:30:16;7.10;;;3.17;;
69170;SDS011;56279;47.902;12.308;2023-05-18T03:32:17;6.05;;;3.40;;
69170;SDS011;56279;47.902;12.308;2023-05-18T03:34:21;7.53;;;3.30;;
69170;SDS011;56279;47.902;12.308;2023-05-18T03:36:23;7.68;;;4.22;;
69170;SDS011;56279;47.902;12.308;2023-05-18T03:38:28;7.65;;;3.63;;
69170;SDS011;56279;47.902;12.308;2023-05-18T03:40:36;6.30;;;3.75;;
69170;SDS011;56279;47.902;12.308;2023-05-18T03:42:38;7.05;;;3.83;;
69170;SDS011;56279;47.902;12.308;2023-05-18T03:44:40;5.82;;;3.53;;
69170;SDS011;56279;47.902;12.308;2023-05-18T03:46:42;6.35;;;3.10;;
69170;SDS011;56279;47.902;12.308;2023-05-18T03:48:43;5.60;;;3.20;;
69170;SDS011;56279;47.902;12.308;2023-05-18T03:50:45;7.55;;;3.42;;
69170;SDS011;56279;47.902;12.308;2023-05-18T03:52:46;6.50;;;3.70;;
69170;SDS011;56279;47.902;12.308;2023-05-18T03:54:47;8.40;;;4.00;;
69170;SDS011;56279;47.902;12.308;2023-05-18T03:56:52;8.43;;;3.80;;
69170;SDS011;56279;47.902;12.308;2023-05-18T03:58:53;7.25;;;3.60;;
69170;SDS011;56279;47.902;12.308;2023-05-18T04:00:55;6.78;;;3.58;;
69170;SDS011;56279;47.902;12.308;2023-05-18T04:02:57;8.98;;;4.10;;
69170;SDS011;56279;47.902;12.308;2023-05-18T04:05:00;7.90;;;4.43;;
69170;SDS011;56279;47.902;12.308;2023-05-18T04:07:02;7.03;;;4.22;;
69170;SDS011;56279;47.902;12.308;2023-05-18T04:09:05;6.70;;;3.70;;
69170;SDS011;56279;47.902;12.308;2023-05-18T04:11:07;6.38;;;3.67;;
69170;SDS011;56279;47.902;12.308;2023-05-18T04:13:09;5.80;;;3.65;;
69170;SDS011;56279;47.902;12.308;2023-05-18T04:15:11;6.68;;;3.70;;
69170;SDS011;56279;47.902;12.308;2023-05-18T04:17:17;8.10;;;3.80;;
69170;SDS011;56279;47.902;12.308;2023-05-18T04:19:22;7.72;;;3.88;;
69170;SDS011;56279;47.902;12.308;2023-05-18T04:21:23;6.30;;;3.92;;
69170;SDS011;56279;47.902;12.308;2023-05-18T04:23:25;9.52;;;4.20;;
69170;SDS011;56279;47.902;12.308;2023-05-18T04:25:27;8.25;;;4.10;;
69170;SDS011;56279;47.902;12.308;2023-05-18T04:27:28;9.88;;;3.85;;
69170;SDS011;56279;47.902;12.308;2023-05-18T04:29:29;7.45;;;3.80;;
69170;SDS011;56279;47.902;12.308;2023-05-18T04:31:31;7.43;;;4.03;;
69170;SDS011;56279;47.902;12.308;2023-05-18T04:33:42;6.43;;;3.45;;
69170;SDS011;56279;47.902;12.308;2023-05-18T04:35:47;8.55;;;4.00;;
69170;SDS011;56279;47.902;12.308;2023-05-18T04:37:48;6.88;;;3.55;;
69170;SDS011;56279;47.902;12.308;2023-05-18T04:39:51;8.57;;;3.90;;
69170;SDS011;56279;47.902;12.308;2023-05-18T04:41:54;7.80;;;3.78;;
69170;SDS011;56279;47.902;12.308;2023-05-18T04:43:59;5.53;;;3.40;;
69170;SDS011;56279;47.902;12.308;2023-05-18T04:46:02;7.47;;;3.63;;
69170;SDS011;56279;47.902;12.308;2023-05-18T04:48:04;6.88;;;3.63;;
69170;SDS011;56279;47.902;12.308;2023-05-18T04:50:05;7.13;;;3.53;;
69170;SDS011;56279;47.902;12.308;2023-05-18T04:52:07;6.37;;;3.53;;
69170;SDS011;56279;47.902;12.308;2023-05-18T04:54:11;5.97;;;3.65;;
69170;SDS011;56279;47.902;12.308;2023-05-18T04:56:13;8.00;;;3.53;;
69170;SDS011;56279;47.902;12.308;2023-05-18T04:58:15;7.07;;;4.25;;
69170;SDS011;56279;47.902;12.308;2023-05-18T05:00:17;7.07;;;3.97;;
69170;SDS011;56279;47.902;12.308;2023-05-18T05:02:18;6.00;;;3.47;;
69170;SDS011;56279;47.902;12.308;2023-05-18T05:04:20;8.20;;;3.80;;
69170;SDS011;56279;47.902;12.308;2023-05-18T05:06:22;6.38;;;3.85;;
69170;SDS011;56279;47.902;12.308;2023-05-18T05:08:23;5.97;;;3.45;;
69170;SDS011;56279;47.902;12.308;2023-05-18T05:10:24;9.95;;;3.95;;
69170;SDS011;56279;47.902;12.308;2023-05-18T05:12:28;7.70;;;4.18;;
69170;SDS011;56279;47.902;12.308;2023-05-18T05:14:29;6.65;;;3.58;;
69170;SDS011;56279;47.902;12.308;2023-05-18T05:16:32;7.32;;;4.22;;
69170;SDS011;56279;47.902;12.308;2023-05-18T05:18:35;6.90;;;3.80;;
69170;SDS011;56279;47.902;12.308;2023-05-18T05:20:36;5.22;;;3.40;;
69170;SDS011;56279;47.902;12.308;2023-05-18T05:22:37;7.03;;;3.57;;
69170;SDS011;56279;47.902;12.308;2023-05-18T05:24:41;8.10;;;3.97;;
69170;SDS011;56279;47.902;12.308;2023-05-18T05:26:42;10.32;;;4.07;;
69170;SDS011;56279;47.902;12.308;2023-05-18T05:28:44;6.78;;;3.97;;
69170;SDS011;56279;47.902;12.308;2023-05-18T05:30:45;7.63;;;4.13;;
69170;SDS011;56279;47.902;12.308;2023-05-18T05:32:47;9.63;;;3.83;;
69170;SDS011;56279;47.902;12.308;2023-05-18T05:34:48;6.55;;;3.55;;
69170;SDS011;56279;47.902;12.308;2023-05-18T05:36:52;8.20;;;3.90;;
69170;SDS011;56279;47.902;12.308;2023-05-18T05:38:54;8.02;;;3.90;;
69170;SDS011;56279;47.902;12.308;2023-05-18T05:40:56;9.02;;;3.92;;
69170;SDS011;56279;47.902;12.308;2023-05-18T05:45:39;6.90;;;3.33;;
69170;SDS011;56279;47.902;12.308;2023-05-18T05:47:43;8.65;;;3.90;;
69170;SDS011;56279;47.902;12.308;2023-05-18T05:49:45;9.90;;;3.60;;
69170;SDS011;56279;47.902;12.308;2023-05-18T05:51:47;6.80;;;3.72;;
69170;SDS011;56279;47.902;12.308;2023-05-18T05:53:48;8.03;;;3.20;;
69170;SDS011;56279;47.902;12.308;2023-05-18T05:55:52;7.70;;;3.47;;
69170;SDS011;56279;47.902;12.308;2023-05-18T05:57:55;6.20;;;3.30;;
69170;SDS011;56279;47.902;12.308;2023-05-18T05:59:56;7.38;;;3.08;;
69170;SDS011;56279;47.902;12.308;2023-05-18T06:01:59;6.80;;;3.33;;
69170;SDS011;56279;47.902;12.308;2023-05-18T06:04:01;7.13;;;3.10;;
69170;SDS011;56279;47.902;12.308;2023-05-18T06:06:05;6.82;;;3.17;;
69170;SDS011;56279;47.902;12.308;2023-05-18T06:08:09;6.65;;;3.00;;
69170;SDS011;56279;47.902;12.308;2023-05-18T06:10:13;9.95;;;3.17;;
69170;SDS011;56279;47.902;12.308;2023-05-18T06:12:18;8.27;;;3.22;;
69170;SDS011;56279;47.902;12.308;2023-05-18T06:14:19;8.07;;;3.13;;
69170;SDS011;56279;47.902;12.308;2023-05-18T06:16:21;10.38;;;3.40;;
69170;SDS011;56279;47.902;12.308;2023-05-18T06:18:22;10.25;;;3.50;;
69170;SDS011;56279;47.902;12.308;2023-05-18T06:20:28;7.93;;;3.13;;
69170;SDS011;56279;47.902;12.308;2023-05-18T06:22:29;11.30;;;3.25;;
69170;SDS011;56279;47.902;12.308;2023-05-18T06:25:00;7.53;;;3.00;;
69170;SDS011;56279;47.902;12.308;2023-05-18T06:27:22;7.47;;;3.25;;
69170;SDS011;56279;47.902;12.308;2023-05-18T06:29:41;9.10;;;4.22;;
69170;SDS011;56279;47.902;12.308;2023-05-18T06:31:52;8.10;;;3.78;;
69170;SDS011;56279;47.902;12.308;2023-05-18T06:33:58;7.82;;;3.42;;
69170;SDS011;56279;47.902;12.308;2023-05-18T06:36:00;8.90;;;3.23;;
69170;SDS011;56279;47.902;12.308;2023-05-18T06:38:02;6.68;;;3.28;;
69170;SDS011;56279;47.902;12.308;2023-05-18T06:40:03;7.00;;;3.25;;
69170;SDS011;56279;47.902;12.308;2023-05-18T06:42:07;7.97;;;3.22;;
69170;SDS011;56279;47.902;12.308;2023-05-18T06:44:08;7.55;;;3.30;;
69170;SDS011;56279;47.902;12.308;2023-05-18T06:46:17;6.87;;;3.57;;
69170;SDS011;56279;47.902;12.308;2023-05-18T06:48:21;9.68;;;3.22;;
69170;SDS011;56279;47.902;12.308;2023-05-18T06:50:25;9.05;;;3.83;;
69170;SDS011;56279;47.902;12.308;2023-05-18T06:52:27;9.77;;;4.38;;
69170;SDS011;56279;47.902;12.308;2023-05-18T06:54:28;6.63;;;3.10;;
69170;SDS011;56279;47.902;12.308;2023-05-18T06:56:30;9.60;;;3.60;;
69170;SDS011;56279;47.902;12.308;2023-05-18T06:58:32;6.40;;;3.10;;
69170;SDS011;56279;47.902;12.308;2023-05-18T07:00:37;7.30;;;4.05;;
69170;SDS011;56279;47.902;12.308;2023-05-18T07:02:39;11.07;;;3.25;;
69170;SDS011;56279;47.902;12.308;2023-05-18T07:04:44;9.27;;;3.47;;
69170;SDS011;56279;47.902;12.308;2023-05-18T07:06:45;11.13;;;3.23;;
69170;SDS011;56279;47.902;12.308;2023-05-18T07:08:46;8.63;;;3.28;;
69170;SDS011;56279;47.902;12.308;2023-05-18T07:10:48;10.25;;;3.83;;
69170;SDS011;56279;47.902;12.308;2023-05-18T07:12:49;8.98;;;3.70;;
69170;SDS011;56279;47.902;12.308;2023-05-18T07:14:51;7.10;;;3.58;;
69170;SDS011;56279;47.902;12.308;2023-05-18T07:16:53;12.43;;;4.27;;
69170;SDS011;56279;47.902;12.308;2023-05-18T07:18:55;6.28;;;3.33;;
69170;SDS011;56279;47.902;12.308;2023-05-18T07:20:58;6.57;;;3.47;;
69170;SDS011;56279;47.902;12.308;2023-05-18T07:22:59;8.43;;;3.33;;
69170;SDS011;56279;47.902;12.308;2023-05-18T07:25:01;7.55;;;3.90;;
69170;SDS011;56279;47.902;12.308;2023-05-18T07:27:02;5.90;;;3.20;;
69170;SDS011;56279;47.902;12.308;2023-05-18T07:29:04;8.85;;;3.20;;
69170;SDS011;56279;47.902;12.308;2023-05-18T07:31:05;10.23;;;5.03;;
69170;SDS011;56279;47.902;12.308;2023-05-18T07:33:07;6.47;;;3.65;;
69170;SDS011;56279;47.902;12.308;2023-05-18T07:35:08;7.55;;;3.53;;
69170;SDS011;56279;47.902;12.308;2023-05-18T07:37:09;8.37;;;3.90;;
69170;SDS011;56279;47.902;12.308;2023-05-18T07:39:11;10.52;;;4.15;;
69170;SDS011;56279;47.902;12.308;2023-05-18T07:41:18;8.43;;;4.00;;
69170;SDS011;56279;47.902;12.308;2023-05-18T07:43:19;12.27;;;3.60;;
69170;SDS011;56279;47.902;12.308;2023-05-18T07:45:20;9.07;;;3.40;;
69170;SDS011;56279;47.902;12.308;2023-05-18T07:47:23;6.93;;;3.93;;
69170;SDS011;56279;47.902;12.308;2023-05-18T07:49:25;10.95;;;3.72;;
69170;SDS011;56279;47.902;12.308;2023-05-18T07:51:27;10.93;;;3.63;;
69170;SDS011;56279;47.902;12.308;2023-05-18T07:53:29;7.68;;;3.20;;
69170;SDS011;56279;47.902;12.308;2023-05-18T07:55:31;7.05;;;3.25;;
69170;SDS011;56279;47.902;12.308;2023-05-18T07:57:33;8.07;;;3.23;;
69170;SDS011;56279;47.902;12.308;2023-05-18T07:59:35;8.75;;;3.45;;
69170;SDS011;56279;47.902;12.308;2023-05-18T08:01:36;10.43;;;4.07;;
69170;SDS011;56279;47.902;12.308;2023-05-18T08:03:38;9.15;;;3.33;;
69170;SDS011;56279;47.902;12.308;2023-05-18T08:05:39;9.98;;;4.20;;
69170;SDS011;56279;47.902;12.308;2023-05-18T08:07:41;10.23;;;4.00;;
69170;SDS011;56279;47.902;12.308;2023-05-18T08:09:43;8.40;;;3.75;;
69170;SDS011;56279;47.902;12.308;2023-05-18T08:11:44;10.35;;;3.30;;
69170;SDS011;56279;47.902;12.308;2023-05-18T08:13:45;10.85;;;3.80;;
69170;SDS011;56279;47.902;12.308;2023-05-18T08:15:47;11.45;;;3.00;;
69170;SDS011;56279;47.902;12.308;2023-05-18T08:17:48;6.30;;;3.00;;
69170;SDS011;56279;47.902;12.308;2023-05-18T08:19:49;9.10;;;3.25;;
69170;SDS011;56279;47.902;12.308;2023-05-18T08:21:55;6.65;;;3.13;;
69170;SDS011;56279;47.902;12.308;2023-05-18T08:23:57;7.72;;;2.83;;
69170;SDS011;56279;47.902;12.308;2023-05-18T08:25:58;10.07;;;3.22;;
69170;SDS011;56279;47.902;12.308;2023-05-18T08:28:00;10.93;;;3.17;;
69170;SDS011;56279;47.902;12.308;2023-05-18T08:30:01;8.48;;;3.33;;
69170;SDS011;56279;47.902;12.308;2023-05-18T08:32:06;16.98;;;3.78;;
69170;SDS011;56279;47.902;12.308;2023-05-18T08:34:07;7.72;;;3.17;;
69170;SDS011;56279;47.902;12.308;2023-05-18T08:36:11;11.75;;;3.97;;
69170;SDS011;56279;47.902;12.308;2023-05-18T08:38:12;11.57;;;4.37;;
69170;SDS011;56279;47.902;12.308;2023-05-18T08:40:14;8.75;;;3.08;;
69170;SDS011;56279;47.902;12.308;2023-05-18T08:42:20;6.90;;;3.15;;
69170;SDS011;56279;47.902;12.308;2023-05-18T08:45:06;9.98;;;3.85;;
69170;SDS011;56279;47.902;12.308;2023-05-18T08:46:59;9.57;;;3.53;;
69170;SDS011;56279;47.902;12.308;2023-05-18T08:49:01;8.57;;;2.87;;
69170;SDS011;56279;47.902;12.308;2023-05-18T08:51:05;7.78;;;3.42;;
69170;SDS011;56279;47.902;12.308;2023-05-18T08:53:09;8.45;;;3.30;;
69170;SDS011;56279;47.902;12.308;2023-05-18T08:55:11;7.93;;;3.22;;
69170;SDS011;56279;47.902;12.308;2023-05-18T08:57:14;11.38;;;3.42;;
69170;SDS011;56279;47.902;12.308;2023-05-18T08:59:23;9.27;;;3.10;;
69170;SDS011;56279;47.902;12.308;2023-05-18T09:01:27;9.02;;;3.20;;
69170;SDS011;56279;47.902;12.308;2023-05-18T09:03:29;6.60;;;3.53;;
69170;SDS011;56279;47.902;12.308;2023-05-18T09:05:32;9.40;;;3.88;;
69170;SDS011;56279;47.902;12.308;2023-05-18T09:07:33;6.40;;;2.80;;
69170;SDS011;56279;47.902;12.308;2023-05-18T09:09:37;9.73;;;2.97;;
69170;SDS011;56279;47.902;12.308;2023-05-18T09:11:39;8.27;;;2.90;;
69170;SDS011;56279;47.902;12.308;2023-05-18T09:13:41;8.48;;;2.72;;
69170;SDS011;56279;47.902;12.308;2023-05-18T09:15:43;6.65;;;2.83;;
69170;SDS011;56279;47.902;12.308;2023-05-18T09:17:44;6.55;;;3.10;;
69170;SDS011;56279;47.902;12.308;2023-05-18T09:19:46;10.00;;;3.03;;
69170;SDS011;56279;47.902;12.308;2023-05-18T09:21:47;6.97;;;2.70;;
69170;SDS011;56279;47.902;12.308;2023-05-18T09:23:49;8.77;;;3.10;;
69170;SDS011;56279;47.902;12.308;2023-05-18T09:25:51;7.13;;;2.97;;
69170;SDS011;56279;47.902;12.308;2023-05-18T09:27:54;9.70;;;3.35;;
69170;SDS011;56279;47.902;12.308;2023-05-18T09:29:56;7.33;;;2.87;;
69170;SDS011;56279;47.902;12.308;2023-05-18T09:32:02;7.25;;;3.20;;
69170;SDS011;56279;47.902;12.308;2023-05-18T09:34:04;9.15;;;2.80;;
69170;SDS011;56279;47.902;12.308;2023-05-18T09:36:07;5.05;;;2.83;;
69170;SDS011;56279;47.902;12.308;2023-05-18T09:38:09;8.27;;;2.53;;
69170;SDS011;56279;47.902;12.308;2023-05-18T09:40:12;6.50;;;3.37;;
69170;SDS011;56279;47.902;12.308;2023-05-18T09:42:13;7.47;;;3.05;;
69170;SDS011;56279;47.902;12.308;2023-05-18T09:44:14;7.45;;;3.03;;
69170;SDS011;56279;47.902;12.308;2023-05-18T09:46:17;8.13;;;3.40;;
69170;SDS011;56279;47.902;12.308;2023-05-18T09:48:20;6.93;;;2.88;;
69170;SDS011;56279;47.902;12.308;2023-05-18T09:50:23;6.60;;;2.80;;
69170;SDS011;56279;47.902;12.308;2023-05-18T09:52:26;6.90;;;2.40;;
69170;SDS011;56279;47.902;12.308;2023-05-18T09:54:27;7.05;;;2.90;;
69170;SDS011;56279;47.902;12.308;2023-05-18T09:56:29;7.93;;;2.92;;
69170;SDS011;56279;47.902;12.308;2023-05-18T09:58:31;8.32;;;3.13;;
69170;SDS011;56279;47.902;12.308;2023-05-18T10:00:42;7.60;;;2.93;;
69170;SDS011;56279;47.902;12.308;2023-05-18T10:02:49;6.30;;;3.10;;
69170;SDS011;56279;47.902;12.308;2023-05-18T10:04:52;6.53;;;3.53;;
69170;SDS011;56279;47.902;12.308;2023-05-18T10:06:53;8.10;;;3.10;;
69170;SDS011;56279;47.902;12.308;2023-05-18T10:09:00;7.35;;;3.20;;
69170;SDS011;56279;47.902;12.308;2023-05-18T10:11:03;6.97;;;2.90;;
69170;SDS011;56279;47.902;12.308;2023-05-18T10:13:05;6.55;;;3.00;;
69170;SDS011;56279;47.902;12.308;2023-05-18T10:15:13;6.45;;;3.00;;
69170;SDS011;56279;47.902;12.308;2023-05-18T10:17:15;6.13;;;2.83;;
69170;SDS011;56279;47.902;12.308;2023-05-18T10:19:17;9.02;;;3.05;;
69170;SDS011;56279;47.902;12.308;2023-05-18T10:21:21;7.97;;;3.13;;
69170;SDS011;56279;47.902;12.308;2023-05-18T10:23:29;7.97;;;2.90;;
69170;SDS011;56279;47.902;12.308;2023-05-18T10:25:31;7.63;;;3.42;;
69170;SDS011;56279;47.902;12.308;2023-05-18T10:27:34;5.75;;;3.03;;
69170;SDS011;56279;47.902;12.308;2023-05-18T10:29:36;6.72;;;3.03;;
69170;SDS011;56279;47.902;12.308;2023-05-18T10:31:38;9.87;;;3.27;;
69170;SDS011;56279;47.902;12.308;2023-05-18T10:33:41;5.53;;;2.72;;
69170;SDS011;56279;47.902;12.308;2023-05-18T10:39:19;7.82;;;3.03;;
69170;SDS011;56279;47.902;12.308;2023-05-18T10:41:20;6.45;;;3.05;;
69170;SDS011;56279;47.902;12.308;2023-05-18T10:43:23;6.17;;;3.73;;
69170;SDS011;56279;47.902;12.308;2023-05-18T10:45:31;7.20;;;3.30;;
69170;SDS011;56279;47.902;12.308;2023-05-18T10:47:38;7.70;;;3.83;;
69170;SDS011;56279;47.902;12.308;2023-05-18T10:49:42;8.52;;;3.40;;
69170;SDS011;56279;47.902;12.308;2023-05-18T10:51:46;8.45;;;3.70;;
69170;SDS011;56279;47.902;12.308;2023-05-18T10:53:49;8.53;;;3.30;;
69170;SDS011;56279;47.902;12.308;2023-05-18T10:55:51;7.82;;;3.20;;
69170;SDS011;56279;47.902;12.308;2023-05-18T10:57:55;6.38;;;3.13;;
69170;SDS011;56279;47.902;12.308;2023-05-18T11:00:01;8.05;;;3.00;;
69170;SDS011;56279;47.902;12.308;2023-05-18T11:02:03;7.40;;;3.17;;
69170;SDS011;56279;47.902;12.308;2023-05-18T11:04:04;7.73;;;2.93;;
69170;SDS011;56279;47.902;12.308;2023-05-18T11:06:09;8.13;;;3.85;;
69170;SDS011;56279;47.902;12.308;2023-05-18T11:08:12;7.45;;;3.75;;
69170;SDS011;56279;47.902;12.308;2023-05-18T11:10:31;5.63;;;3.13;;
69170;SDS011;56279;47.902;12.308;2023-05-18T11:12:39;6.25;;;3.30;;
69170;SDS011;56279;47.902;12.308;2023-05-18T11:14:48;6.67;;;4.10;;
69170;SDS011;56279;47.902;12.308;2023-05-18T11:16:53;8.85;;;4.03;;
69170;SDS011;56279;47.902;12.308;2023-05-18T11:19:16;6.25;;;3.47;;
69170;SDS011;56279;47.902;12.308;2023-05-18T11:23:22;9.35;;;3.33;;
69170;SDS011;56279;47.902;12.308;2023-05-18T11:27:27;7.20;;;3.25;;
69170;SDS011;56279;47.902;12.308;2023-05-18T11:29:30;5.38;;;3.30;;
69170;SDS011;56279;47.902;12.308;2023-05-18T11:31:44;6.53;;;3.20;;
69170;SDS011;56279;47.902;12.308;2023-05-18T11:33:46;6.97;;;3.20;;
69170;SDS011;56279;47.902;12.308;2023-05-18T11:35:58;6.97;;;3.00;;
69170;SDS011;56279;47.902;12.308;2023-05-18T11:38:11;5.97;;;2.90;;
69170;SDS011;56279;47.902;12.308;2023-05-18T11:40:58;6.10;;;3.30;;
69170;SDS011;56279;47.902;12.308;2023-05-18T11:42:56;6.63;;;2.92;;
69170;SDS011;56279;47.902;12.308;2023-05-18T11:45:06;5.75;;;3.30;;
69170;SDS011;56279;47.902;12.308;2023-05-18T11:47:09;7.57;;;3.50;;
69170;SDS011;56279;47.902;12.308;2023-05-18T11:49:12;5.82;;;3.13;;
69170;SDS011;56279;47.902;12.308;2023-05-18T11:51:16;6.28;;;3.80;;
69170;SDS011;56279;47.902;12.308;2023-05-18T11:53:17;9.25;;;3.40;;
69170;SDS011;56279;47.902;12.308;2023-05-18T11:55:19;9.38;;;4.10;;
69170;SDS011;56279;47.902;12.308;2023-05-18T11:59:44;6.35;;;2.72;;
69170;SDS011;56279;47.902;12.308;2023-05-18T12:01:49;6.05;;;3.15;;
69170;SDS011;56279;47.902;12.308;2023-05-18T12:03:50;8.02;;;3.17;;
69170;SDS011;56279;47.902;12.308;2023-05-18T12:05:52;7.75;;;2.90;;
69170;SDS011;56279;47.902;12.308;2023-05-18T12:07:57;7.00;;;2.90;;
69170;SDS011;56279;47.902;12.308;2023-05-18T12:10:03;5.57;;;2.50;;
69170;SDS011;56279;47.902;12.308;2023-05-18T12:12:07;6.20;;;2.70;;
69170;SDS011;56279;47.902;12.308;2023-05-18T12:14:10;7.32;;;3.03;;
69170;SDS011;56279;47.902;12.308;2023-05-18T12:16:12;6.57;;;2.92;;
69170;SDS011;56279;47.902;12.308;2023-05-18T12:18:17;4.63;;;2.20;;
69170;SDS011;56279;47.902;12.308;2023-05-18T12:20:19;5.05;;;2.42;;
69170;SDS011;56279;47.902;12.308;2023-05-18T12:22:21;6.75;;;2.85;;
69170;SDS011;56279;47.902;12.308;2023-05-18T12:24:28;4.93;;;2.53;;
69170;SDS011;56279;47.902;12.308;2023-05-18T12:26:29;5.68;;;2.72;;
69170;SDS011;56279;47.902;12.308;2023-05-18T12:28:31;8.10;;;2.83;;
69170;SDS011;56279;47.902;12.308;2023-05-18T12:30:32;3.88;;;2.28;;
69170;SDS011;56279;47.902;12.308;2023-05-18T12:32:34;5.57;;;2.67;;